sensor_id;sensor_type;location;lat;lon;timestamp;P1;durP1;ratioP1;P2;durP2;ratioP2
72117;SDS011;59992;47.490;8.736;2022-08-20T00:01:47;14.00;;;9.00;;
72117;SDS011;59992;47.490;8.736;2022-08-20T00:04:37;14.30;;;8.60;;
72117;SDS011;59992;47.490;8.736;2022-08-20T00:07:28;13.50;;;8.70;;
72117;SDS011;59992;47.490;8.736;2022-08-20T00:10:19;15.10;;;10.10;;
72117;SDS011;59992;47.490;8.736;2022-08-20T00:13:11;15.30;;;9.20;;
72117;SDS011;59992;47.490;8.736;2022-08-20T00:16:05;13.50;;;8.60;;
72117;SDS011;59992;47.490;8.736;2022-08-20T00:18:57;15.30;;;9.30;;
72117;SDS011;59992;47.490;8.736;2022-08-20T00:21:48;15.60;;;9.80;;
72117;SDS011;59992;47.490;8.736;2022-08-20T00:24:39;12.90;;;8.70;;
72117;SDS011;59992;47.490;8.736;2022-08-20T00:27:30;14.20;;;8.30;;
72117;SDS011;59992;47.490;8.736;2022-08-20T00:30:21;14.80;;;9.00;;
72117;SDS011;59992;47.490;8.736;2022-08-20T00:33:14;16.20;;;9.80;;
72117;SDS011;59992;47.490;8.736;2022-08-20T00:36:08;14.90;;;9.70;;
72117;SDS011;59992;47.490;8.736;2022-08-20T00:38:59;15.10;;;9.90;;
72117;SDS011;59992;47.490;8.736;2022-08-20T00:41:50;17.80;;;11.20;;
72117;SDS011;59992;47.490;8.736;2022-08-20T00:44:44;13.20;;;9.10;;
72117;SDS011;59992;47.490;8.736;2022-08-20T00:47:35;15.80;;;10.40;;
72117;SDS011;59992;47.490;8.736;2022-08-20T00:50:29;16.60;;;10.00;;
72117;SDS011;59992;47.490;8.736;2022-08-20T00:53:23;14.60;;;10.00;;
72117;SDS011;59992;47.490;8.736;2022-08-20T00:56:15;18.30;;;10.00;;
72117;SDS011;59992;47.490;8.736;2022-08-20T00:59:07;14.60;;;10.10;;
72117;SDS011;59992;47.490;8.736;2022-08-20T01:02:02;16.20;;;9.90;;
72117;SDS011;59992;47.490;8.736;2022-08-20T01:04:57;13.00;;;9.00;;
72117;SDS011;59992;47.490;8.736;2022-08-20T01:07:49;14.00;;;9.60;;
72117;SDS011;59992;47.490;8.736;2022-08-20T01:10:42;15.80;;;10.30;;
72117;SDS011;59992;47.490;8.736;2022-08-20T01:13:35;15.00;;;10.30;;
72117;SDS011;59992;47.490;8.736;2022-08-20T01:16:28;15.70;;;10.00;;
72117;SDS011;59992;47.490;8.736;2022-08-20T01:19:23;15.30;;;8.60;;
72117;SDS011;59992;47.490;8.736;2022-08-20T01:22:19;17.80;;;9.90;;
72117;SDS011;59992;47.490;8.736;2022-08-20T01:25:37;15.10;;;10.00;;
72117;SDS011;59992;47.490;8.736;2022-08-20T01:28:33;13.90;;;8.70;;
72117;SDS011;59992;47.490;8.736;2022-08-20T01:31:26;13.70;;;9.50;;
72117;SDS011;59992;47.490;8.736;2022-08-20T01:34:19;14.20;;;8.80;;
72117;SDS011;59992;47.490;8.736;2022-08-20T01:37:10;14.10;;;9.60;;
72117;SDS011;59992;47.490;8.736;2022-08-20T01:40:00;12.50;;;8.50;;
72117;SDS011;59992;47.490;8.736;2022-08-20T01:42:55;14.10;;;9.00;;
72117;SDS011;59992;47.490;8.736;2022-08-20T01:45:46;14.00;;;9.10;;
72117;SDS011;59992;47.490;8.736;2022-08-20T01:48:37;13.80;;;9.10;;
72117;SDS011;59992;47.490;8.736;2022-08-20T01:51:29;14.70;;;8.90;;
72117;SDS011;59992;47.490;8.736;2022-08-20T01:54:20;13.70;;;8.90;;
72117;SDS011;59992;47.490;8.736;2022-08-20T01:57:12;13.30;;;9.10;;
72117;SDS011;59992;47.490;8.736;2022-08-20T02:00:06;13.40;;;8.80;;
72117;SDS011;59992;47.490;8.736;2022-08-20T02:03:00;12.90;;;9.50;;
72117;SDS011;59992;47.490;8.736;2022-08-20T02:05:51;14.80;;;8.70;;
72117;SDS011;59992;47.490;8.736;2022-08-20T02:08:42;13.50;;;8.40;;
72117;SDS011;59992;47.490;8.736;2022-08-20T02:11:32;15.50;;;8.90;;
72117;SDS011;59992;47.490;8.736;2022-08-20T02:14:23;12.30;;;8.60;;
72117;SDS011;59992;47.490;8.736;2022-08-20T02:17:15;12.00;;;8.60;;
72117;SDS011;59992;47.490;8.736;2022-08-20T02:20:09;12.80;;;8.70;;
72117;SDS011;59992;47.490;8.736;2022-08-20T02:23:03;13.30;;;8.90;;
72117;SDS011;59992;47.490;8.736;2022-08-20T02:25:55;13.20;;;8.80;;
72117;SDS011;59992;47.490;8.736;2022-08-20T02:28:48;21.50;;;8.30;;
72117;SDS011;59992;47.490;8.736;2022-08-20T02:31:40;13.40;;;8.20;;
72117;SDS011;59992;47.490;8.736;2022-08-20T02:34:32;12.20;;;7.80;;
72117;SDS011;59992;47.490;8.736;2022-08-20T02:37:23;11.70;;;7.70;;
72117;SDS011;59992;47.490;8.736;2022-08-20T02:40:16;11.90;;;7.60;;
72117;SDS011;59992;47.490;8.736;2022-08-20T02:43:09;10.80;;;7.50;;
72117;SDS011;59992;47.490;8.736;2022-08-20T02:46:01;11.40;;;7.50;;
72117;SDS011;59992;47.490;8.736;2022-08-20T02:48:51;11.00;;;7.20;;
72117;SDS011;59992;47.490;8.736;2022-08-20T02:51:42;13.90;;;7.60;;
72117;SDS011;59992;47.490;8.736;2022-08-20T02:54:33;11.10;;;7.40;;
72117;SDS011;59992;47.490;8.736;2022-08-20T02:57:24;12.90;;;7.90;;
72117;SDS011;59992;47.490;8.736;2022-08-20T03:00:18;11.00;;;7.10;;
72117;SDS011;59992;47.490;8.736;2022-08-20T03:03:10;10.30;;;7.40;;
72117;SDS011;59992;47.490;8.736;2022-08-20T03:06:02;12.50;;;7.50;;
72117;SDS011;59992;47.490;8.736;2022-08-20T03:08:54;11.00;;;7.10;;
72117;SDS011;59992;47.490;8.736;2022-08-20T03:11:48;10.30;;;6.90;;
72117;SDS011;59992;47.490;8.736;2022-08-20T03:14:39;9.60;;;7.00;;
72117;SDS011;59992;47.490;8.736;2022-08-20T03:17:30;12.00;;;7.00;;
72117;SDS011;59992;47.490;8.736;2022-08-20T03:20:21;10.40;;;6.80;;
72117;SDS011;59992;47.490;8.736;2022-08-20T03:23:12;11.60;;;6.90;;
72117;SDS011;59992;47.490;8.736;2022-08-20T03:26:06;12.30;;;7.10;;
72117;SDS011;59992;47.490;8.736;2022-08-20T03:28:59;11.00;;;7.10;;
72117;SDS011;59992;47.490;8.736;2022-08-20T03:31:50;11.00;;;7.40;;
72117;SDS011;59992;47.490;8.736;2022-08-20T03:34:40;11.90;;;6.80;;
72117;SDS011;59992;47.490;8.736;2022-08-20T03:37:31;11.70;;;7.40;;
72117;SDS011;59992;47.490;8.736;2022-08-20T03:40:27;9.30;;;6.60;;
72117;SDS011;59992;47.490;8.736;2022-08-20T03:43:21;10.70;;;7.10;;
72117;SDS011;59992;47.490;8.736;2022-08-20T03:46:12;11.60;;;7.90;;
72117;SDS011;59992;47.490;8.736;2022-08-20T03:49:03;12.20;;;7.30;;
72117;SDS011;59992;47.490;8.736;2022-08-20T03:51:54;10.90;;;7.40;;
72117;SDS011;59992;47.490;8.736;2022-08-20T03:54:44;14.00;;;7.40;;
72117;SDS011;59992;47.490;8.736;2022-08-20T03:57:35;12.50;;;7.50;;
72117;SDS011;59992;47.490;8.736;2022-08-20T04:00:37;11.10;;;7.50;;
72117;SDS011;59992;47.490;8.736;2022-08-20T04:03:40;11.50;;;7.00;;
72117;SDS011;59992;47.490;8.736;2022-08-20T04:06:31;10.50;;;6.90;;
72117;SDS011;59992;47.490;8.736;2022-08-20T04:09:22;12.60;;;7.40;;
72117;SDS011;59992;47.490;8.736;2022-08-20T04:12:13;11.30;;;7.10;;
72117;SDS011;59992;47.490;8.736;2022-08-20T04:15:05;10.30;;;6.50;;
72117;SDS011;59992;47.490;8.736;2022-08-20T04:17:57;13.70;;;7.20;;
72117;SDS011;59992;47.490;8.736;2022-08-20T04:20:49;11.40;;;6.90;;
72117;SDS011;59992;47.490;8.736;2022-08-20T04:23:41;12.40;;;6.80;;
72117;SDS011;59992;47.490;8.736;2022-08-20T04:26:32;11.10;;;6.60;;
72117;SDS011;59992;47.490;8.736;2022-08-20T04:29:28;10.40;;;6.60;;
72117;SDS011;59992;47.490;8.736;2022-08-20T04:32:19;10.30;;;7.00;;
72117;SDS011;59992;47.490;8.736;2022-08-20T04:35:10;14.50;;;7.30;;
72117;SDS011;59992;47.490;8.736;2022-08-20T04:38:07;12.90;;;6.90;;
72117;SDS011;59992;47.490;8.736;2022-08-20T04:41:03;9.90;;;6.80;;
72117;SDS011;59992;47.490;8.736;2022-08-20T04:43:54;10.80;;;6.80;;
72117;SDS011;59992;47.490;8.736;2022-08-20T04:46:45;10.70;;;7.20;;
72117;SDS011;59992;47.490;8.736;2022-08-20T04:49:37;10.90;;;7.10;;
72117;SDS011;59992;47.490;8.736;2022-08-20T04:52:28;10.90;;;7.00;;
72117;SDS011;59992;47.490;8.736;2022-08-20T04:55:19;11.90;;;6.60;;
72117;SDS011;59992;47.490;8.736;2022-08-20T04:58:11;9.50;;;6.50;;
72117;SDS011;59992;47.490;8.736;2022-08-20T05:01:07;11.10;;;6.80;;
72117;SDS011;59992;47.490;8.736;2022-08-20T05:03:58;10.70;;;7.00;;
72117;SDS011;59992;47.490;8.736;2022-08-20T05:06:49;10.40;;;7.40;;
72117;SDS011;59992;47.490;8.736;2022-08-20T05:09:40;12.10;;;7.80;;
72117;SDS011;59992;47.490;8.736;2022-08-20T05:12:30;14.60;;;7.20;;
72117;SDS011;59992;47.490;8.736;2022-08-20T05:15:21;10.50;;;6.60;;
72117;SDS011;59992;47.490;8.736;2022-08-20T05:18:12;11.80;;;6.70;;
72117;SDS011;59992;47.490;8.736;2022-08-20T05:21:06;11.50;;;7.70;;
72117;SDS011;59992;47.490;8.736;2022-08-20T05:23:57;11.10;;;7.50;;
72117;SDS011;59992;47.490;8.736;2022-08-20T05:26:49;14.40;;;7.50;;
72117;SDS011;59992;47.490;8.736;2022-08-20T05:29:42;15.80;;;8.10;;
72117;SDS011;59992;47.490;8.736;2022-08-20T05:32:33;12.00;;;7.50;;
72117;SDS011;59992;47.490;8.736;2022-08-20T05:35:24;11.60;;;7.60;;
72117;SDS011;59992;47.490;8.736;2022-08-20T05:38:16;10.70;;;7.50;;
72117;SDS011;59992;47.490;8.736;2022-08-20T05:41:08;12.30;;;7.70;;
72117;SDS011;59992;47.490;8.736;2022-08-20T05:43:58;11.40;;;7.40;;
72117;SDS011;59992;47.490;8.736;2022-08-20T05:46:49;9.70;;;7.00;;
72117;SDS011;59992;47.490;8.736;2022-08-20T05:49:40;15.50;;;7.60;;
72117;SDS011;59992;47.490;8.736;2022-08-20T05:52:32;13.10;;;7.50;;
72117;SDS011;59992;47.490;8.736;2022-08-20T05:55:24;11.50;;;7.20;;
72117;SDS011;59992;47.490;8.736;2022-08-20T05:58:16;11.60;;;8.00;;
72117;SDS011;59992;47.490;8.736;2022-08-20T06:01:09;9.10;;;6.80;;
72117;SDS011;59992;47.490;8.736;2022-08-20T06:04:00;10.00;;;7.10;;
72117;SDS011;59992;47.490;8.736;2022-08-20T06:07:09;10.20;;;6.50;;
72117;SDS011;59992;47.490;8.736;2022-08-20T06:10:00;8.60;;;6.40;;
72117;SDS011;59992;47.490;8.736;2022-08-20T06:12:52;9.20;;;6.20;;
72117;SDS011;59992;47.490;8.736;2022-08-20T06:15:42;10.00;;;6.40;;
72117;SDS011;59992;47.490;8.736;2022-08-20T06:18:33;8.50;;;5.90;;
72117;SDS011;59992;47.490;8.736;2022-08-20T06:21:24;7.50;;;6.00;;
72117;SDS011;59992;47.490;8.736;2022-08-20T06:24:14;8.90;;;6.90;;
72117;SDS011;59992;47.490;8.736;2022-08-20T06:27:05;8.60;;;6.30;;
72117;SDS011;59992;47.490;8.736;2022-08-20T06:29:55;9.40;;;6.40;;
72117;SDS011;59992;47.490;8.736;2022-08-20T06:32:46;8.80;;;5.80;;
72117;SDS011;59992;47.490;8.736;2022-08-20T06:35:41;8.10;;;5.50;;
72117;SDS011;59992;47.490;8.736;2022-08-20T06:38:34;9.00;;;6.50;;
72117;SDS011;59992;47.490;8.736;2022-08-20T06:41:27;9.00;;;5.50;;
72117;SDS011;59992;47.490;8.736;2022-08-20T06:44:20;8.70;;;6.20;;
72117;SDS011;59992;47.490;8.736;2022-08-20T06:47:11;8.10;;;5.60;;
72117;SDS011;59992;47.490;8.736;2022-08-20T06:50:09;7.70;;;5.70;;
72117;SDS011;59992;47.490;8.736;2022-08-20T06:53:04;7.30;;;5.70;;
72117;SDS011;59992;47.490;8.736;2022-08-20T06:55:58;7.60;;;4.90;;
72117;SDS011;59992;47.490;8.736;2022-08-20T06:59:00;8.20;;;5.10;;
72117;SDS011;59992;47.490;8.736;2022-08-20T07:01:52;7.70;;;5.00;;
72117;SDS011;59992;47.490;8.736;2022-08-20T07:04:44;7.50;;;4.90;;
72117;SDS011;59992;47.490;8.736;2022-08-20T07:07:37;6.00;;;4.60;;
72117;SDS011;59992;47.490;8.736;2022-08-20T07:10:32;8.20;;;4.50;;
72117;SDS011;59992;47.490;8.736;2022-08-20T07:13:24;7.00;;;4.40;;
72117;SDS011;59992;47.490;8.736;2022-08-20T07:16:18;5.70;;;4.60;;
72117;SDS011;59992;47.490;8.736;2022-08-20T07:19:10;6.40;;;4.60;;
72117;SDS011;59992;47.490;8.736;2022-08-20T07:22:03;6.80;;;4.80;;
72117;SDS011;59992;47.490;8.736;2022-08-20T07:24:56;6.30;;;4.40;;
72117;SDS011;59992;47.490;8.736;2022-08-20T07:27:49;7.40;;;4.80;;
72117;SDS011;59992;47.490;8.736;2022-08-20T07:30:42;7.80;;;5.00;;
72117;SDS011;59992;47.490;8.736;2022-08-20T07:33:51;6.20;;;4.50;;
72117;SDS011;59992;47.490;8.736;2022-08-20T07:36:44;8.20;;;4.30;;
72117;SDS011;59992;47.490;8.736;2022-08-20T07:39:37;6.80;;;4.30;;
72117;SDS011;59992;47.490;8.736;2022-08-20T07:42:30;5.30;;;4.00;;
72117;SDS011;59992;47.490;8.736;2022-08-20T07:45:23;6.50;;;4.40;;
72117;SDS011;59992;47.490;8.736;2022-08-20T07:48:18;6.30;;;3.80;;
72117;SDS011;59992;47.490;8.736;2022-08-20T07:51:13;6.80;;;3.60;;
72117;SDS011;59992;47.490;8.736;2022-08-20T07:54:07;4.50;;;3.30;;
72117;SDS011;59992;47.490;8.736;2022-08-20T07:57:00;6.40;;;4.10;;
72117;SDS011;59992;47.490;8.736;2022-08-20T07:59:52;3.50;;;2.90;;
72117;SDS011;59992;47.490;8.736;2022-08-20T08:02:45;4.00;;;3.20;;
72117;SDS011;59992;47.490;8.736;2022-08-20T08:05:37;3.60;;;2.80;;
72117;SDS011;59992;47.490;8.736;2022-08-20T08:08:30;4.00;;;2.70;;
72117;SDS011;59992;47.490;8.736;2022-08-20T08:11:22;3.70;;;3.00;;
72117;SDS011;59992;47.490;8.736;2022-08-20T08:14:14;4.70;;;2.40;;
72117;SDS011;59992;47.490;8.736;2022-08-20T08:17:10;2.90;;;2.30;;
72117;SDS011;59992;47.490;8.736;2022-08-20T08:20:04;3.20;;;2.20;;
72117;SDS011;59992;47.490;8.736;2022-08-20T08:22:59;2.20;;;1.80;;
72117;SDS011;59992;47.490;8.736;2022-08-20T08:25:51;2.70;;;2.00;;
72117;SDS011;59992;47.490;8.736;2022-08-20T08:28:43;2.00;;;1.60;;
72117;SDS011;59992;47.490;8.736;2022-08-20T08:31:34;2.80;;;2.00;;
72117;SDS011;59992;47.490;8.736;2022-08-20T08:34:27;2.40;;;1.80;;
72117;SDS011;59992;47.490;8.736;2022-08-20T08:37:18;2.70;;;1.60;;
72117;SDS011;59992;47.490;8.736;2022-08-20T08:40:09;2.00;;;1.50;;
72117;SDS011;59992;47.490;8.736;2022-08-20T08:43:01;2.00;;;1.30;;
72117;SDS011;59992;47.490;8.736;2022-08-20T08:45:54;3.10;;;1.50;;
72117;SDS011;59992;47.490;8.736;2022-08-20T08:48:48;2.00;;;1.50;;
72117;SDS011;59992;47.490;8.736;2022-08-20T08:51:45;1.70;;;1.30;;
72117;SDS011;59992;47.490;8.736;2022-08-20T08:54:47;2.00;;;1.30;;
72117;SDS011;59992;47.490;8.736;2022-08-20T08:57:40;1.70;;;1.30;;
72117;SDS011;59992;47.490;8.736;2022-08-20T09:00:32;2.10;;;1.40;;
72117;SDS011;59992;47.490;8.736;2022-08-20T09:03:25;2.00;;;1.30;;
72117;SDS011;59992;47.490;8.736;2022-08-20T09:06:21;1.80;;;1.40;;
72117;SDS011;59992;47.490;8.736;2022-08-20T09:09:17;2.60;;;1.50;;
72117;SDS011;59992;47.490;8.736;2022-08-20T09:12:12;2.50;;;1.20;;
72117;SDS011;59992;47.490;8.736;2022-08-20T09:15:06;2.10;;;1.50;;
72117;SDS011;59992;47.490;8.736;2022-08-20T09:17:57;2.30;;;1.40;;
72117;SDS011;59992;47.490;8.736;2022-08-20T09:20:48;2.60;;;1.50;;
72117;SDS011;59992;47.490;8.736;2022-08-20T09:23:39;5.30;;;1.80;;
72117;SDS011;59992;47.490;8.736;2022-08-20T09:26:30;5.70;;;2.20;;
72117;SDS011;59992;47.490;8.736;2022-08-20T09:29:20;3.70;;;2.00;;
72117;SDS011;59992;47.490;8.736;2022-08-20T09:32:12;3.70;;;2.40;;
72117;SDS011;59992;47.490;8.736;2022-08-20T09:35:06;3.80;;;2.20;;
72117;SDS011;59992;47.490;8.736;2022-08-20T09:37:57;2.40;;;1.80;;
72117;SDS011;59992;47.490;8.736;2022-08-20T09:40:48;6.20;;;2.00;;
72117;SDS011;59992;47.490;8.736;2022-08-20T09:43:38;3.50;;;2.10;;
72117;SDS011;59992;47.490;8.736;2022-08-20T09:46:29;3.90;;;2.20;;
72117;SDS011;59992;47.490;8.736;2022-08-20T09:49:19;4.80;;;2.00;;
72117;SDS011;59992;47.490;8.736;2022-08-20T09:52:12;2.70;;;1.50;;
72117;SDS011;59992;47.490;8.736;2022-08-20T09:55:14;2.60;;;1.60;;
72117;SDS011;59992;47.490;8.736;2022-08-20T09:58:14;3.70;;;1.70;;
72117;SDS011;59992;47.490;8.736;2022-08-20T10:01:13;4.40;;;1.80;;
72117;SDS011;59992;47.490;8.736;2022-08-20T10:04:06;5.00;;;2.20;;
72117;SDS011;59992;47.490;8.736;2022-08-20T10:06:58;4.20;;;1.80;;
72117;SDS011;59992;47.490;8.736;2022-08-20T10:09:49;4.20;;;2.10;;
72117;SDS011;59992;47.490;8.736;2022-08-20T10:12:39;3.50;;;2.20;;
72117;SDS011;59992;47.490;8.736;2022-08-20T10:15:30;4.50;;;2.30;;
72117;SDS011;59992;47.490;8.736;2022-08-20T10:18:21;3.20;;;1.90;;
72117;SDS011;59992;47.490;8.736;2022-08-20T10:21:11;4.00;;;1.80;;
72117;SDS011;59992;47.490;8.736;2022-08-20T10:24:04;4.90;;;1.90;;
72117;SDS011;59992;47.490;8.736;2022-08-20T10:26:55;3.90;;;2.20;;
72117;SDS011;59992;47.490;8.736;2022-08-20T10:29:48;3.80;;;2.20;;
72117;SDS011;59992;47.490;8.736;2022-08-20T10:32:38;3.20;;;1.60;;
72117;SDS011;59992;47.490;8.736;2022-08-20T10:35:30;1.80;;;1.20;;
72117;SDS011;59992;47.490;8.736;2022-08-20T10:38:20;1.40;;;1.00;;
72117;SDS011;59992;47.490;8.736;2022-08-20T10:41:11;1.40;;;1.00;;
72117;SDS011;59992;47.490;8.736;2022-08-20T10:44:02;1.40;;;0.80;;
72117;SDS011;59992;47.490;8.736;2022-08-20T10:46:52;1.60;;;1.00;;
72117;SDS011;59992;47.490;8.736;2022-08-20T10:49:43;1.50;;;1.00;;
72117;SDS011;59992;47.490;8.736;2022-08-20T10:52:35;1.20;;;0.90;;
72117;SDS011;59992;47.490;8.736;2022-08-20T10:55:26;1.60;;;0.80;;
72117;SDS011;59992;47.490;8.736;2022-08-20T10:58:16;1.50;;;0.80;;
72117;SDS011;59992;47.490;8.736;2022-08-20T11:01:07;1.30;;;0.80;;
72117;SDS011;59992;47.490;8.736;2022-08-20T11:03:58;1.80;;;0.80;;
72117;SDS011;59992;47.490;8.736;2022-08-20T11:06:48;1.00;;;0.60;;
72117;SDS011;59992;47.490;8.736;2022-08-20T11:09:38;1.90;;;0.70;;
72117;SDS011;59992;47.490;8.736;2022-08-20T11:12:29;1.20;;;0.70;;
72117;SDS011;59992;47.490;8.736;2022-08-20T11:15:20;2.00;;;0.50;;
72117;SDS011;59992;47.490;8.736;2022-08-20T11:18:11;0.80;;;0.50;;
72117;SDS011;59992;47.490;8.736;2022-08-20T11:21:02;0.60;;;0.50;;
72117;SDS011;59992;47.490;8.736;2022-08-20T11:23:53;1.30;;;0.50;;
72117;SDS011;59992;47.490;8.736;2022-08-20T11:26:44;1.10;;;0.50;;
72117;SDS011;59992;47.490;8.736;2022-08-20T11:29:37;0.90;;;0.60;;
72117;SDS011;59992;47.490;8.736;2022-08-20T11:32:27;1.30;;;0.80;;
72117;SDS011;59992;47.490;8.736;2022-08-20T11:35:18;1.00;;;0.60;;
72117;SDS011;59992;47.490;8.736;2022-08-20T11:38:10;1.60;;;0.80;;
72117;SDS011;59992;47.490;8.736;2022-08-20T11:41:01;2.40;;;0.70;;
72117;SDS011;59992;47.490;8.736;2022-08-20T11:43:52;1.00;;;0.70;;
72117;SDS011;59992;47.490;8.736;2022-08-20T11:46:43;1.20;;;0.70;;
72117;SDS011;59992;47.490;8.736;2022-08-20T11:49:34;2.00;;;0.80;;
72117;SDS011;59992;47.490;8.736;2022-08-20T11:52:25;1.80;;;1.00;;
72117;SDS011;59992;47.490;8.736;2022-08-20T11:55:16;1.50;;;1.00;;
72117;SDS011;59992;47.490;8.736;2022-08-20T11:58:08;1.00;;;0.70;;
72117;SDS011;59992;47.490;8.736;2022-08-20T12:00:59;1.20;;;0.90;;
72117;SDS011;59992;47.490;8.736;2022-08-20T12:03:50;1.40;;;0.80;;
72117;SDS011;59992;47.490;8.736;2022-08-20T12:06:41;1.50;;;1.10;;
72117;SDS011;59992;47.490;8.736;2022-08-20T12:09:32;2.30;;;1.10;;
72117;SDS011;59992;47.490;8.736;2022-08-20T12:12:23;2.60;;;1.30;;
72117;SDS011;59992;47.490;8.736;2022-08-20T12:15:13;1.60;;;0.90;;
72117;SDS011;59992;47.490;8.736;2022-08-20T12:18:06;2.40;;;1.10;;
72117;SDS011;59992;47.490;8.736;2022-08-20T12:20:57;1.70;;;1.00;;
72117;SDS011;59992;47.490;8.736;2022-08-20T12:23:48;1.50;;;1.00;;
72117;SDS011;59992;47.490;8.736;2022-08-20T12:26:38;1.50;;;1.00;;
72117;SDS011;59992;47.490;8.736;2022-08-20T12:29:29;1.90;;;1.00;;
72117;SDS011;59992;47.490;8.736;2022-08-20T12:32:22;1.50;;;1.20;;
72117;SDS011;59992;47.490;8.736;2022-08-20T12:35:15;1.70;;;1.20;;
72117;SDS011;59992;47.490;8.736;2022-08-20T12:38:07;2.00;;;1.10;;
72117;SDS011;59992;47.490;8.736;2022-08-20T12:40:58;1.80;;;1.30;;
72117;SDS011;59992;47.490;8.736;2022-08-20T12:43:49;1.80;;;1.30;;
72117;SDS011;59992;47.490;8.736;2022-08-20T12:46:40;1.80;;;1.10;;
72117;SDS011;59992;47.490;8.736;2022-08-20T12:49:31;1.40;;;1.10;;
72117;SDS011;59992;47.490;8.736;2022-08-20T12:52:23;2.60;;;1.40;;
72117;SDS011;59992;47.490;8.736;2022-08-20T12:55:16;1.50;;;1.20;;
72117;SDS011;59992;47.490;8.736;2022-08-20T12:58:09;1.60;;;1.10;;
72117;SDS011;59992;47.490;8.736;2022-08-20T13:01:00;1.50;;;1.20;;
72117;SDS011;59992;47.490;8.736;2022-08-20T13:03:51;1.70;;;1.20;;
72117;SDS011;59992;47.490;8.736;2022-08-20T13:06:41;1.90;;;1.20;;
72117;SDS011;59992;47.490;8.736;2022-08-20T13:09:32;1.40;;;1.10;;
72117;SDS011;59992;47.490;8.736;2022-08-20T13:12:22;1.60;;;1.20;;
72117;SDS011;59992;47.490;8.736;2022-08-20T13:15:13;1.50;;;1.10;;
72117;SDS011;59992;47.490;8.736;2022-08-20T13:18:04;1.40;;;1.10;;
72117;SDS011;59992;47.490;8.736;2022-08-20T13:20:55;1.50;;;1.10;;
72117;SDS011;59992;47.490;8.736;2022-08-20T13:23:46;1.60;;;1.00;;
72117;SDS011;59992;47.490;8.736;2022-08-20T13:26:37;1.40;;;1.00;;
72117;SDS011;59992;47.490;8.736;2022-08-20T13:29:27;1.30;;;1.10;;
72117;SDS011;59992;47.490;8.736;2022-08-20T13:32:18;1.00;;;0.90;;
72117;SDS011;59992;47.490;8.736;2022-08-20T13:35:10;1.20;;;1.10;;
72117;SDS011;59992;47.490;8.736;2022-08-20T13:38:01;1.60;;;1.00;;
72117;SDS011;59992;47.490;8.736;2022-08-20T13:40:52;1.30;;;0.90;;
72117;SDS011;59992;47.490;8.736;2022-08-20T13:43:43;1.40;;;0.90;;
72117;SDS011;59992;47.490;8.736;2022-08-20T13:46:33;2.00;;;0.80;;
72117;SDS011;59992;47.490;8.736;2022-08-20T13:49:24;2.40;;;0.90;;
72117;SDS011;59992;47.490;8.736;2022-08-20T13:52:15;2.50;;;1.30;;
72117;SDS011;59992;47.490;8.736;2022-08-20T13:55:06;2.70;;;1.10;;
72117;SDS011;59992;47.490;8.736;2022-08-20T13:58:02;1.80;;;1.00;;
72117;SDS011;59992;47.490;8.736;2022-08-20T14:00:54;1.60;;;0.90;;
72117;SDS011;59992;47.490;8.736;2022-08-20T14:03:45;1.50;;;0.70;;
72117;SDS011;59992;47.490;8.736;2022-08-20T14:06:35;1.00;;;0.70;;
72117;SDS011;59992;47.490;8.736;2022-08-20T14:09:26;1.20;;;0.80;;
72117;SDS011;59992;47.490;8.736;2022-08-20T14:12:17;1.20;;;0.90;;
72117;SDS011;59992;47.490;8.736;2022-08-20T14:15:10;1.00;;;0.80;;
72117;SDS011;59992;47.490;8.736;2022-08-20T14:18:01;1.20;;;0.80;;
72117;SDS011;59992;47.490;8.736;2022-08-20T14:20:52;1.40;;;0.80;;
72117;SDS011;59992;47.490;8.736;2022-08-20T14:23:43;2.00;;;0.70;;
72117;SDS011;59992;47.490;8.736;2022-08-20T14:26:33;1.80;;;0.90;;
72117;SDS011;59992;47.490;8.736;2022-08-20T14:29:24;1.10;;;0.80;;
72117;SDS011;59992;47.490;8.736;2022-08-20T14:32:15;1.60;;;0.90;;
72117;SDS011;59992;47.490;8.736;2022-08-20T14:35:07;2.20;;;0.90;;
72117;SDS011;59992;47.490;8.736;2022-08-20T14:37:58;1.90;;;1.00;;
72117;SDS011;59992;47.490;8.736;2022-08-20T14:40:49;1.00;;;0.70;;
72117;SDS011;59992;47.490;8.736;2022-08-20T14:43:40;1.20;;;0.80;;
72117;SDS011;59992;47.490;8.736;2022-08-20T14:46:31;1.50;;;0.80;;
72117;SDS011;59992;47.490;8.736;2022-08-20T14:49:22;1.50;;;0.90;;
72117;SDS011;59992;47.490;8.736;2022-08-20T14:52:13;2.20;;;0.80;;
72117;SDS011;59992;47.490;8.736;2022-08-20T14:55:06;1.20;;;0.80;;
72117;SDS011;59992;47.490;8.736;2022-08-20T14:57:58;2.10;;;0.90;;
72117;SDS011;59992;47.490;8.736;2022-08-20T15:00:49;2.30;;;0.90;;
72117;SDS011;59992;47.490;8.736;2022-08-20T15:03:39;1.30;;;0.80;;
72117;SDS011;59992;47.490;8.736;2022-08-20T15:06:30;1.10;;;0.80;;
72117;SDS011;59992;47.490;8.736;2022-08-20T15:09:20;1.20;;;0.80;;
72117;SDS011;59992;47.490;8.736;2022-08-20T15:12:11;1.00;;;0.80;;
72117;SDS011;59992;47.490;8.736;2022-08-20T15:15:02;1.10;;;0.60;;
72117;SDS011;59992;47.490;8.736;2022-08-20T15:18:00;1.50;;;0.70;;
72117;SDS011;59992;47.490;8.736;2022-08-20T15:20:50;1.50;;;0.80;;
72117;SDS011;59992;47.490;8.736;2022-08-20T15:23:41;2.20;;;0.90;;
72117;SDS011;59992;47.490;8.736;2022-08-20T15:26:32;1.80;;;1.00;;
72117;SDS011;59992;47.490;8.736;2022-08-20T15:29:22;2.40;;;0.80;;
72117;SDS011;59992;47.490;8.736;2022-08-20T15:32:13;2.70;;;0.90;;
72117;SDS011;59992;47.490;8.736;2022-08-20T15:35:04;2.40;;;1.00;;
72117;SDS011;59992;47.490;8.736;2022-08-20T15:37:57;1.20;;;0.80;;
72117;SDS011;59992;47.490;8.736;2022-08-20T15:40:48;1.30;;;1.00;;
72117;SDS011;59992;47.490;8.736;2022-08-20T15:43:39;2.40;;;0.90;;
72117;SDS011;59992;47.490;8.736;2022-08-20T15:46:29;2.40;;;1.20;;
72117;SDS011;59992;47.490;8.736;2022-08-20T15:49:20;2.30;;;1.00;;
72117;SDS011;59992;47.490;8.736;2022-08-20T15:52:15;1.80;;;1.00;;
72117;SDS011;59992;47.490;8.736;2022-08-20T15:55:06;1.70;;;1.10;;
72117;SDS011;59992;47.490;8.736;2022-08-20T15:58:07;2.20;;;1.10;;
72117;SDS011;59992;47.490;8.736;2022-08-20T16:01:04;1.70;;;0.90;;
72117;SDS011;59992;47.490;8.736;2022-08-20T16:04:07;1.50;;;1.10;;
72117;SDS011;59992;47.490;8.736;2022-08-20T16:07:13;1.80;;;1.00;;
72117;SDS011;59992;47.490;8.736;2022-08-20T16:10:16;1.30;;;1.00;;
72117;SDS011;59992;47.490;8.736;2022-08-20T16:13:16;1.90;;;1.10;;
72117;SDS011;59992;47.490;8.736;2022-08-20T16:16:26;2.10;;;1.00;;
72117;SDS011;59992;47.490;8.736;2022-08-20T16:19:24;4.90;;;1.10;;
72117;SDS011;59992;47.490;8.736;2022-08-20T16:22:17;2.00;;;1.00;;
72117;SDS011;59992;47.490;8.736;2022-08-20T16:25:09;1.40;;;0.90;;
72117;SDS011;59992;47.490;8.736;2022-08-20T16:28:02;1.30;;;0.70;;
72117;SDS011;59992;47.490;8.736;2022-08-20T16:30:59;1.60;;;1.00;;
72117;SDS011;59992;47.490;8.736;2022-08-20T16:33:57;3.70;;;1.00;;
72117;SDS011;59992;47.490;8.736;2022-08-20T16:36:55;2.00;;;1.20;;
72117;SDS011;59992;47.490;8.736;2022-08-20T16:39:54;1.10;;;0.80;;
72117;SDS011;59992;47.490;8.736;2022-08-20T16:42:53;13.20;;;10.20;;
72117;SDS011;59992;47.490;8.736;2022-08-20T16:45:46;4.00;;;3.30;;
72117;SDS011;59992;47.490;8.736;2022-08-20T16:48:43;1.70;;;1.20;;
72117;SDS011;59992;47.490;8.736;2022-08-20T16:51:40;4.50;;;2.60;;
72117;SDS011;59992;47.490;8.736;2022-08-20T16:54:32;3.90;;;2.60;;
72117;SDS011;59992;47.490;8.736;2022-08-20T16:57:23;1.60;;;0.70;;
72117;SDS011;59992;47.490;8.736;2022-08-20T17:00:20;5.20;;;2.20;;
72117;SDS011;59992;47.490;8.736;2022-08-20T17:03:19;5.80;;;2.00;;
72117;SDS011;59992;47.490;8.736;2022-08-20T17:06:15;4.70;;;2.40;;
72117;SDS011;59992;47.490;8.736;2022-08-20T17:09:12;3.90;;;1.10;;
72117;SDS011;59992;47.490;8.736;2022-08-20T17:12:17;6.00;;;1.00;;
72117;SDS011;59992;47.490;8.736;2022-08-20T17:15:16;2.40;;;0.90;;